createdAt,value
2019-04-06T00:00:17.694Z,69.02
2019-04-06T00:01:45.449Z,68.99
2019-04-06T00:02:50.477Z,68.95
2019-04-06T00:03:55.515Z,68.92
2019-04-06T00:05:00.533Z,68.89
2019-04-06T00:06:05.641Z,68.87
2019-04-06T00:07:10.715Z,68.86
2019-04-06T00:08:16.036Z,68.85
2019-04-06T00:09:21.166Z,68.83
2019-04-06T00:10:26.237Z,68.83
2019-04-06T00:11:31.335Z,68.83
2019-04-06T00:12:36.496Z,68.80
2019-04-06T00:13:41.623Z,68.79
2019-04-06T00:14:46.659Z,68.75
2019-04-06T00:15:51.852Z,68.73
2019-04-06T00:16:57.355Z,68.74
2019-04-06T00:18:02.336Z,68.74
2019-04-06T00:19:07.521Z,68.71
2019-04-06T00:20:12.700Z,68.71
2019-04-06T00:21:17.944Z,68.70
2019-04-06T00:22:22.959Z,68.69
2019-04-06T00:23:28.447Z,68.66
2019-04-06T00:24:33.452Z,68.61
2019-04-06T00:25:44.450Z,68.61
2019-04-06T00:26:45.350Z,68.58
2019-04-06T00:27:50.767Z,68.53
2019-04-06T00:28:55.931Z,68.47
2019-04-06T00:30:00.910Z,68.47
2019-04-06T00:31:12.999Z,68.44
2019-04-06T00:32:23.976Z,68.42
2019-04-06T00:33:29.086Z,68.42
2019-04-06T00:34:34.155Z,68.40
2019-04-06T00:35:39.250Z,68.41
2019-04-06T00:36:44.454Z,68.40
2019-04-06T00:37:49.565Z,68.41
2019-04-06T00:38:54.757Z,68.41
2019-04-06T00:39:59.843Z,68.39
2019-04-06T00:41:05.174Z,68.37
2019-04-06T00:42:10.382Z,68.37
2019-04-06T00:43:15.305Z,68.31
2019-04-06T00:44:20.465Z,68.32
2019-04-06T00:45:25.756Z,68.31
2019-04-06T00:46:30.877Z,68.29
2019-04-06T00:47:36.061Z,68.25
2019-04-06T00:48:41.286Z,68.23
2019-04-06T00:49:46.295Z,68.23
2019-04-06T00:50:51.660Z,68.21
2019-04-06T00:51:57.656Z,68.19
2019-04-06T00:53:02.935Z,68.18
2019-04-06T00:54:08.102Z,68.16
2019-04-06T00:55:13.315Z,68.16
2019-04-06T00:56:18.476Z,68.15
2019-04-06T00:57:23.811Z,68.12
2019-04-06T00:58:28.801Z,68.12
2019-04-06T00:59:33.893Z,68.15
2019-04-06T01:00:39.094Z,68.16
2019-04-06T01:01:44.342Z,68.14
2019-04-06T01:02:49.525Z,68.12
2019-04-06T01:03:54.727Z,68.08
2019-04-06T01:04:59.822Z,68.05
2019-04-06T01:06:05.519Z,68.01
2019-04-06T01:07:10.586Z,68.02
2019-04-06T01:08:16.200Z,68.03
2019-04-06T01:09:21.283Z,68.04
2019-04-06T01:10:26.466Z,68.08
2019-04-06T01:11:31.674Z,68.08
2019-04-06T01:12:36.678Z,68.06
2019-04-06T01:13:41.781Z,68.03
2019-04-06T01:14:46.919Z,68.04
2019-04-06T01:15:51.882Z,68.02
2019-04-06T01:16:56.993Z,67.97
2019-04-06T01:18:01.996Z,67.96
2019-04-06T01:19:07.200Z,67.96
2019-04-06T01:20:12.547Z,67.95
2019-04-06T01:21:18.602Z,67.94
2019-04-06T01:22:23.705Z,67.96
2019-04-06T01:23:28.932Z,67.97
2019-04-06T01:24:33.987Z,67.96
2019-04-06T01:25:39.270Z,67.97
2019-04-06T01:26:44.481Z,67.95
2019-04-06T01:27:49.741Z,67.95
2019-04-06T01:28:54.883Z,67.95
2019-04-06T01:30:00.340Z,67.90
2019-04-06T01:31:05.713Z,67.92
2019-04-06T01:32:10.661Z,67.90
2019-04-06T01:33:16.085Z,67.86
2019-04-06T01:34:21.222Z,67.84
2019-04-06T01:35:26.306Z,67.81
2019-04-06T01:36:31.566Z,67.79
2019-04-06T01:37:36.516Z,67.81
2019-04-06T01:38:41.529Z,67.77
2019-04-06T01:39:46.532Z,67.77
2019-04-06T01:40:52.320Z,67.76
2019-04-06T01:41:57.494Z,67.72
2019-04-06T01:43:02.769Z,67.76
2019-04-06T01:44:08.055Z,67.81
2019-04-06T01:45:13.324Z,67.85
2019-04-06T01:46:18.423Z,67.88
2019-04-06T01:47:23.765Z,67.89
2019-04-06T01:48:30.288Z,67.92
2019-04-06T01:49:35.428Z,67.94
2019-04-06T01:50:40.816Z,67.94
2019-04-06T01:51:46.206Z,67.93
2019-04-06T01:52:51.387Z,67.95
2019-04-06T01:53:56.550Z,67.98
2019-04-06T01:55:01.854Z,68.00
2019-04-06T01:56:17.651Z,68.08
2019-04-06T01:57:13.992Z,68.08
2019-04-06T01:58:19.361Z,68.12
2019-04-06T01:59:24.484Z,68.19
2019-04-06T02:00:29.796Z,68.24
2019-04-06T02:01:42.031Z,68.28
2019-04-06T02:02:49.927Z,68.29
2019-04-06T02:03:54.969Z,68.27
2019-04-06T02:05:00.015Z,68.29
2019-04-06T02:06:05.308Z,68.32
2019-04-06T02:07:10.335Z,68.36
2019-04-06T02:08:15.299Z,68.38
2019-04-06T02:09:20.653Z,68.43
2019-04-06T02:10:26.162Z,68.48
2019-04-06T02:11:31.181Z,68.48
2019-04-06T02:12:36.670Z,68.55
2019-04-06T02:13:41.680Z,68.60
2019-04-06T02:14:46.823Z,68.66
2019-04-06T02:15:51.834Z,68.72
2019-04-06T02:16:56.905Z,68.75
2019-04-06T02:18:01.978Z,68.78
2019-04-06T02:19:07.093Z,68.79
2019-04-06T02:20:12.805Z,68.81
2019-04-06T02:21:17.861Z,68.82
2019-04-06T02:22:22.979Z,68.81
2019-04-06T02:23:28.004Z,68.85
2019-04-06T02:24:33.367Z,68.90
2019-04-06T02:25:39.171Z,68.92
2019-04-06T02:26:44.834Z,68.92
2019-04-06T02:27:49.833Z,68.91
2019-04-06T02:28:54.905Z,68.90
2019-04-06T02:30:17.904Z,68.94
2019-04-06T02:31:54.686Z,68.97
2019-04-06T02:33:28.187Z,68.97
2019-04-06T02:34:52.107Z,68.93
2019-04-06T02:36:25.288Z,68.95
2019-04-06T02:37:48.105Z,68.98
2019-04-06T02:39:10.649Z,69.01
2019-04-06T02:40:34.800Z,69.04
2019-04-06T02:41:57.453Z,69.12
2019-04-06T02:43:09.586Z,69.19
2019-04-06T02:44:14.858Z,69.22
2019-04-06T02:45:20.291Z,69.28
2019-04-06T02:46:25.402Z,69.31
2019-04-06T02:47:30.607Z,69.31
2019-04-06T02:48:35.668Z,69.37
2019-04-06T02:49:40.735Z,69.34
2019-04-06T02:50:45.795Z,69.35
2019-04-06T02:51:50.956Z,69.35
2019-04-06T02:52:56.085Z,69.33
2019-04-06T02:54:01.179Z,69.31
2019-04-06T02:55:06.880Z,69.33
2019-04-06T02:56:12.280Z,69.40
2019-04-06T02:57:17.321Z,69.40
2019-04-06T02:58:24.614Z,69.45
2019-04-06T02:59:30.415Z,69.42
2019-04-06T03:00:36.028Z,69.39
2019-04-06T03:01:41.794Z,69.36
2019-04-06T03:02:47.048Z,69.34
2019-04-06T03:03:52.124Z,69.29
2019-04-06T03:04:57.197Z,69.31
2019-04-06T03:06:02.383Z,69.30
2019-04-06T03:07:07.891Z,69.66
2019-04-06T03:08:13.035Z,69.66
2019-04-06T03:09:18.105Z,69.31
2019-04-06T03:10:23.350Z,69.32
2019-04-06T03:11:30.049Z,69.31
2019-04-06T03:12:35.239Z,69.30
2019-04-06T03:13:40.419Z,69.27
2019-04-06T03:14:45.554Z,69.22
2019-04-06T03:15:50.717Z,69.25
2019-04-06T03:16:56.028Z,69.26
2019-04-06T03:18:01.303Z,69.28
2019-04-06T03:19:06.395Z,69.34
2019-04-06T03:20:11.612Z,69.39
2019-04-06T03:21:16.620Z,69.41
2019-04-06T03:22:21.648Z,69.37
2019-04-06T03:23:26.852Z,69.33
2019-04-06T03:24:31.920Z,69.40
2019-04-06T03:25:37.434Z,69.43
2019-04-06T03:26:42.391Z,69.40
2019-04-06T03:27:47.568Z,69.40
2019-04-06T03:28:52.658Z,69.33
2019-04-06T03:29:59.073Z,69.33
2019-04-06T03:31:04.584Z,69.33
2019-04-06T03:32:09.728Z,69.29
2019-04-06T03:33:15.119Z,69.31
2019-04-06T03:34:22.340Z,69.34
2019-04-06T03:35:27.677Z,69.32
2019-04-06T03:36:33.581Z,69.32
2019-04-06T03:37:38.805Z,69.32
2019-04-06T03:38:43.877Z,69.28
2019-04-06T03:39:49.079Z,69.29
2019-04-06T03:40:54.430Z,69.32
2019-04-06T03:41:59.548Z,69.35
2019-04-06T03:43:04.635Z,69.33
2019-04-06T03:44:09.827Z,69.35
2019-04-06T03:45:15.343Z,69.39
2019-04-06T03:46:20.387Z,69.39
2019-04-06T03:47:26.120Z,69.36
2019-04-06T03:48:31.431Z,69.39
2019-04-06T03:49:36.389Z,69.42
2019-04-06T03:50:41.501Z,69.47
2019-04-06T03:51:46.519Z,69.51
2019-04-06T03:52:51.910Z,69.57
2019-04-06T03:53:57.005Z,69.58
2019-04-06T03:55:02.080Z,69.64
2019-04-06T03:56:07.637Z,69.62
2019-04-06T03:57:16.320Z,69.61
2019-04-06T03:58:19.807Z,69.66
2019-04-06T03:59:24.931Z,69.72
2019-04-06T04:00:31.720Z,69.72
2019-04-06T04:01:36.753Z,69.70
2019-04-06T04:02:41.866Z,69.66
2019-04-06T04:03:46.898Z,69.67
2019-04-06T04:04:51.877Z,69.70
2019-04-06T04:05:57.201Z,69.76
2019-04-06T04:07:02.456Z,69.83
2019-04-06T04:08:07.984Z,69.84
2019-04-06T04:09:13.139Z,69.84
2019-04-06T04:10:31.989Z,69.87
2019-04-06T04:11:37.617Z,69.92
2019-04-06T04:12:43.269Z,69.94
2019-04-06T04:13:48.365Z,69.97
2019-04-06T04:14:53.342Z,70.00
2019-04-06T04:15:58.408Z,70.05
2019-04-06T04:17:03.430Z,70.10
2019-04-06T04:18:09.058Z,70.12
2019-04-06T04:19:14.018Z,70.15
2019-04-06T04:20:19.040Z,70.13
2019-04-06T04:21:24.024Z,70.16
2019-04-06T04:22:29.049Z,70.19
2019-04-06T04:23:34.609Z,70.23
2019-04-06T04:24:40.407Z,70.23
2019-04-06T04:25:45.907Z,70.23
2019-04-06T04:26:51.552Z,70.23
2019-04-06T04:27:57.327Z,70.19
2019-04-06T04:29:02.482Z,70.18
2019-04-06T04:30:08.331Z,70.21
2019-04-06T04:31:13.405Z,70.20
2019-04-06T04:32:18.509Z,70.16
2019-04-06T04:33:23.562Z,70.06
2019-04-06T04:34:28.827Z,70.02
2019-04-06T04:35:33.840Z,69.96
2019-04-06T04:36:39.116Z,69.87
2019-04-06T04:37:44.151Z,69.83
2019-04-06T04:38:49.313Z,69.82
2019-04-06T04:39:54.432Z,69.78
2019-04-06T04:40:59.843Z,69.75
2019-04-06T04:42:04.981Z,69.73
2019-04-06T04:43:10.097Z,69.67
2019-04-06T04:44:15.136Z,69.62
2019-04-06T04:45:20.349Z,69.60
2019-04-06T04:46:25.476Z,69.59
2019-04-06T04:47:30.606Z,69.61
2019-04-06T04:48:36.036Z,69.61
2019-04-06T04:49:41.063Z,69.59
2019-04-06T04:50:46.085Z,69.58
2019-04-06T04:51:51.146Z,69.58
2019-04-06T04:52:56.588Z,69.56
2019-04-06T04:54:01.772Z,69.55
2019-04-06T04:55:07.122Z,69.56
2019-04-06T04:56:12.151Z,69.54
2019-04-06T04:57:17.579Z,69.51
2019-04-06T04:58:22.680Z,69.48
2019-04-06T04:59:27.749Z,69.47
2019-04-06T05:00:33.127Z,69.43
2019-04-06T05:01:38.395Z,69.41
2019-04-06T05:02:43.415Z,69.42
2019-04-06T05:03:48.704Z,69.41
2019-04-06T05:04:54.011Z,69.43
2019-04-06T05:05:59.353Z,69.42
2019-04-06T05:07:04.925Z,69.40
2019-04-06T05:08:10.106Z,69.39
2019-04-06T05:09:15.584Z,69.37
2019-04-06T05:10:20.633Z,69.35
2019-04-06T05:11:25.605Z,69.37
2019-04-06T05:12:30.640Z,69.37
2019-04-06T05:13:35.735Z,69.39
2019-04-06T05:15:03.335Z,69.42
2019-04-06T05:16:12.683Z,69.41
2019-04-06T05:17:17.698Z,69.35
2019-04-06T05:18:22.826Z,69.38
2019-04-06T05:19:28.221Z,69.35
2019-04-06T05:20:33.201Z,69.37
2019-04-06T05:21:38.362Z,69.32
2019-04-06T05:22:43.753Z,69.32
2019-04-06T05:23:48.795Z,69.28
2019-04-06T05:24:54.040Z,69.27
2019-04-06T05:25:59.033Z,69.21
2019-04-06T05:27:04.138Z,69.19
2019-04-06T05:28:09.158Z,69.17
2019-04-06T05:29:14.906Z,69.15
2019-04-06T05:30:20.124Z,69.10
2019-04-06T05:31:25.087Z,69.11
2019-04-06T05:32:30.479Z,69.06
2019-04-06T05:33:36.251Z,69.01
2019-04-06T05:34:41.596Z,69.01
2019-04-06T05:35:46.643Z,68.96
2019-04-06T05:36:51.735Z,68.91
2019-04-06T05:37:56.656Z,68.90
2019-04-06T05:39:02.019Z,68.85
2019-04-06T05:40:07.299Z,68.83
2019-04-06T05:41:12.515Z,68.87
2019-04-06T05:42:17.949Z,68.88
2019-04-06T05:43:23.052Z,68.85
2019-04-06T05:44:28.221Z,68.82
2019-04-06T05:45:33.535Z,68.78
2019-04-06T05:46:39.001Z,68.74
2019-04-06T05:47:44.065Z,68.68
2019-04-06T05:48:49.268Z,68.66
2019-04-06T05:49:54.398Z,68.66
2019-04-06T05:50:59.416Z,68.62
2019-04-06T05:52:04.662Z,68.60
2019-04-06T05:53:09.640Z,68.56
2019-04-06T05:54:14.732Z,68.52
2019-04-06T05:55:19.867Z,68.47
2019-04-06T05:56:24.951Z,68.43
2019-04-06T05:57:32.138Z,68.37
2019-04-06T05:58:40.004Z,68.35
2019-04-06T05:59:43.813Z,68.36
2019-04-06T06:00:48.994Z,68.36
2019-04-06T06:01:54.994Z,68.37
2019-04-06T06:03:00.383Z,68.36
2019-04-06T06:04:05.591Z,68.35
2019-04-06T06:05:11.260Z,68.31
2019-04-06T06:06:16.540Z,68.27
2019-04-06T06:07:21.931Z,68.25
2019-04-06T06:08:27.019Z,68.23
2019-04-06T06:09:32.021Z,68.18
2019-04-06T06:10:38.361Z,68.22
2019-04-06T06:11:43.746Z,68.27
2019-04-06T06:12:48.802Z,68.25
2019-04-06T06:13:53.850Z,68.23
2019-04-06T06:14:58.954Z,68.18
2019-04-06T06:16:04.113Z,68.13
2019-04-06T06:17:09.153Z,68.08
2019-04-06T06:18:25.363Z,68.00
2019-04-06T06:19:21.137Z,67.93
2019-04-06T06:20:26.535Z,67.86
2019-04-06T06:21:31.599Z,67.78
2019-04-06T06:22:36.735Z,67.68
2019-04-06T06:23:41.971Z,67.58
2019-04-06T06:24:47.139Z,67.51
2019-04-06T06:25:52.194Z,67.44
2019-04-06T06:26:57.263Z,67.33
2019-04-06T06:28:13.332Z,67.24
2019-04-06T06:29:09.912Z,67.13
2019-04-06T06:30:15.717Z,67.06
2019-04-06T06:31:21.266Z,66.97
2019-04-06T06:32:26.241Z,66.86
2019-04-06T06:33:31.339Z,66.81
2019-04-06T06:34:36.493Z,66.73
2019-04-06T06:35:41.769Z,66.66
2019-04-06T06:36:47.155Z,66.60
2019-04-06T06:37:52.291Z,66.52
2019-04-06T06:38:57.837Z,66.45
2019-04-06T06:40:03.125Z,66.39
2019-04-06T06:41:08.219Z,66.32
2019-04-06T06:42:13.353Z,66.25
2019-04-06T06:43:18.388Z,66.18
2019-04-06T06:44:23.841Z,66.15
2019-04-06T06:45:29.412Z,66.12
2019-04-06T06:46:34.556Z,66.07
2019-04-06T06:47:39.985Z,66.05
2019-04-06T06:48:45.080Z,66.01
2019-04-06T06:49:50.177Z,65.99
2019-04-06T06:50:55.401Z,65.97
2019-04-06T06:52:00.829Z,65.95
2019-04-06T06:53:06.056Z,65.94
2019-04-06T06:54:11.177Z,65.92
2019-04-06T06:55:16.386Z,65.92
2019-04-06T06:56:21.579Z,65.88
2019-04-06T06:57:26.592Z,65.84
2019-04-06T06:58:31.730Z,65.83
2019-04-06T06:59:37.202Z,65.81
2019-04-06T07:00:42.765Z,65.78
2019-04-06T07:01:47.861Z,65.75
2019-04-06T07:02:52.971Z,65.70
2019-04-06T07:03:58.000Z,65.61
2019-04-06T07:05:03.259Z,65.52
2019-04-06T07:06:08.647Z,65.49
2019-04-06T07:07:13.796Z,65.44
2019-04-06T07:08:19.555Z,65.39
2019-04-06T07:09:24.860Z,65.37
2019-04-06T07:10:30.229Z,65.34
2019-04-06T07:11:35.283Z,65.28
2019-04-06T07:12:40.617Z,65.25
2019-04-06T07:13:45.805Z,65.20
2019-04-06T07:14:50.904Z,65.19
2019-04-06T07:15:56.685Z,65.11
2019-04-06T07:17:01.762Z,65.00
2019-04-06T07:18:06.950Z,64.92
2019-04-06T07:19:12.011Z,64.88
2019-04-06T07:20:17.356Z,64.79
2019-04-06T07:21:22.607Z,64.65
2019-04-06T07:22:27.866Z,64.54
2019-04-06T07:23:33.013Z,64.49
2019-04-06T07:24:38.332Z,64.44
2019-04-06T07:25:43.534Z,64.38
2019-04-06T07:26:48.865Z,64.30
2019-04-06T07:27:54.193Z,64.24
2019-04-06T07:28:59.277Z,64.18
2019-04-06T07:30:05.128Z,64.16
2019-04-06T07:31:12.418Z,64.12
2019-04-06T07:32:17.984Z,64.12
2019-04-06T07:33:23.011Z,64.10
2019-04-06T07:34:28.199Z,64.08
2019-04-06T07:35:33.257Z,63.97
2019-04-06T07:36:38.825Z,63.87
2019-04-06T07:37:43.871Z,63.77
2019-04-06T07:38:48.890Z,63.63
2019-04-06T07:39:53.910Z,63.46
2019-04-06T07:40:59.420Z,63.33
2019-04-06T07:42:05.179Z,63.21
2019-04-06T07:43:10.543Z,63.10
2019-04-06T07:44:16.246Z,63.02
2019-04-06T07:45:21.348Z,62.94
2019-04-06T07:46:26.844Z,62.78
2019-04-06T07:47:31.982Z,62.68
2019-04-06T07:48:37.081Z,62.53
2019-04-06T07:49:42.276Z,62.45
2019-04-06T07:50:47.425Z,62.40
2019-04-06T07:51:52.872Z,62.34
2019-04-06T07:52:57.977Z,62.25
2019-04-06T07:54:02.993Z,62.14
2019-04-06T07:55:08.266Z,62.04
2019-04-06T07:56:13.549Z,61.98
2019-04-06T07:57:18.842Z,61.94
2019-04-06T07:58:23.820Z,61.87
2019-04-06T07:59:28.799Z,61.81
2019-04-06T08:00:33.784Z,61.71
2019-04-06T08:01:39.319Z,61.59
2019-04-06T08:02:44.447Z,61.47
2019-04-06T08:03:49.562Z,61.30
2019-04-06T08:04:54.889Z,61.17
2019-04-06T08:06:00.407Z,61.05
2019-04-06T08:07:05.985Z,60.95
2019-04-06T08:08:11.412Z,60.87
2019-04-06T08:09:16.778Z,60.81
2019-04-06T08:10:21.886Z,60.74
2019-04-06T08:11:27.343Z,60.61
2019-04-06T08:12:32.893Z,60.54
2019-04-06T08:13:38.278Z,60.49
2019-04-06T08:14:43.549Z,60.39
2019-04-06T08:15:48.723Z,60.32
2019-04-06T08:16:53.849Z,60.25
2019-04-06T08:17:58.918Z,60.20
2019-04-06T08:19:04.080Z,60.14
2019-04-06T08:20:11.182Z,60.08
2019-04-06T08:21:16.274Z,60.01
2019-04-06T08:22:21.586Z,59.92
2019-04-06T08:23:26.949Z,59.81
2019-04-06T08:24:31.947Z,59.77
2019-04-06T08:25:39.036Z,59.70
2019-04-06T08:26:46.204Z,59.60
2019-04-06T08:27:51.851Z,59.47
2019-04-06T08:29:01.511Z,59.34
2019-04-06T08:30:04.279Z,59.10
2019-04-06T08:31:09.624Z,58.90
2019-04-06T08:32:15.443Z,58.75
2019-04-06T08:33:21.164Z,58.62
2019-04-06T08:34:26.559Z,58.54
2019-04-06T08:35:32.535Z,58.46
2019-04-06T08:36:37.598Z,58.32
2019-04-06T08:37:42.799Z,58.25
2019-04-06T08:38:49.129Z,58.11
2019-04-06T08:39:57.012Z,57.94
2019-04-06T08:41:01.447Z,57.76
2019-04-06T08:42:06.677Z,57.54
2019-04-06T08:43:12.194Z,57.37
2019-04-06T08:44:17.493Z,57.30
2019-04-06T08:45:22.649Z,57.20
2019-04-06T08:46:28.300Z,57.04
2019-04-06T08:47:33.491Z,56.92
2019-04-06T08:48:38.618Z,56.78
2019-04-06T08:50:38.447Z,56.67
2019-04-06T08:51:43.549Z,56.48
2019-04-06T08:52:48.984Z,56.38
2019-04-06T08:53:54.165Z,56.29
2019-04-06T08:54:59.516Z,56.20
2019-04-06T08:56:05.680Z,56.10
2019-04-06T08:57:11.047Z,56.00
2019-04-06T08:58:16.042Z,55.93
2019-04-06T08:59:20.991Z,55.87
2019-04-06T09:00:26.068Z,55.84
2019-04-06T09:01:31.152Z,55.77
2019-04-06T09:02:37.533Z,55.73
2019-04-06T09:03:42.515Z,55.70
2019-04-06T09:04:47.582Z,55.67
2019-04-06T09:05:52.680Z,55.64
2019-04-06T09:06:58.284Z,55.55
2019-04-06T09:08:03.439Z,55.52
2019-04-06T09:09:08.740Z,55.42
2019-04-06T09:10:15.049Z,55.37
2019-04-06T09:11:20.262Z,55.34
2019-04-06T09:12:25.763Z,55.30
2019-04-06T09:13:31.044Z,55.28
2019-04-06T09:14:36.355Z,55.22
2019-04-06T09:15:41.491Z,55.15
2019-04-06T09:16:46.746Z,55.08
2019-04-06T09:17:51.779Z,54.99
2019-04-06T09:18:57.328Z,54.87
2019-04-06T09:20:02.562Z,54.80
2019-04-06T09:21:07.678Z,54.72
2019-04-06T09:22:12.913Z,54.63
2019-04-06T09:23:17.963Z,54.48
2019-04-06T09:24:23.494Z,54.27
2019-04-06T09:25:28.487Z,54.19
2019-04-06T09:26:33.530Z,54.11
2019-04-06T09:27:38.727Z,54.00
2019-04-06T09:28:44.065Z,53.83
2019-04-06T09:29:49.140Z,53.69
2019-04-06T09:30:54.485Z,53.53
2019-04-06T09:31:59.757Z,53.44
2019-04-06T09:33:04.951Z,53.33
2019-04-06T09:34:09.994Z,53.20
2019-04-06T09:35:15.091Z,53.04
2019-04-06T09:36:20.217Z,52.92
2019-04-06T09:37:25.679Z,52.73
2019-04-06T09:38:30.766Z,52.61
2019-04-06T09:39:36.248Z,52.49
2019-04-06T09:40:41.421Z,52.41
2019-04-06T09:41:46.382Z,52.38
2019-04-06T09:42:51.521Z,52.29
2019-04-06T09:43:56.685Z,52.28
2019-04-06T09:45:18.200Z,52.31
2019-04-06T09:46:29.510Z,52.32
2019-04-06T09:47:50.682Z,52.37
2019-04-06T09:49:11.244Z,52.45
2019-04-06T09:50:23.462Z,52.48
2019-04-06T09:51:40.526Z,52.62
2019-04-06T09:53:04.853Z,52.73
2019-04-06T09:54:29.154Z,52.75
2019-04-06T09:55:56.248Z,52.81
2019-04-06T09:57:23.185Z,52.97
2019-04-06T09:58:50.594Z,53.04
2019-04-06T10:00:00.799Z,53.05
2019-04-06T10:01:15.915Z,53.03
2019-04-06T10:02:30.216Z,53.01
2019-04-06T10:03:42.974Z,53.01
2019-04-06T10:05:06.371Z,52.99
2019-04-06T10:06:32.164Z,52.95
2019-04-06T10:07:43.510Z,52.90
2019-04-06T10:09:07.469Z,52.91
2019-04-06T10:10:32.024Z,52.92
2019-04-06T10:11:59.126Z,52.88
2019-04-06T10:13:29.785Z,52.82
2019-04-06T10:14:57.832Z,52.77
2019-04-06T10:16:24.791Z,52.69
2019-04-06T10:17:47.919Z,52.63
2019-04-06T10:19:18.333Z,52.56
2019-04-06T10:20:35.500Z,52.51
2019-04-06T10:22:06.149Z,52.46
2019-04-06T10:23:30.292Z,52.39
2019-04-06T10:25:00.373Z,52.35
2019-04-06T10:26:27.981Z,52.34
2019-04-06T10:27:48.964Z,52.21
2019-04-06T10:29:12.172Z,52.27
2019-04-06T10:30:43.409Z,52.26
2019-04-06T10:32:15.148Z,52.26
2019-04-06T10:33:38.025Z,52.22
2019-04-06T10:35:02.109Z,52.22
2019-04-06T10:36:44.614Z,52.21
2019-04-06T10:38:27.601Z,52.25
2019-04-06T10:39:46.567Z,52.29
2019-04-06T10:41:10.651Z,52.33
2019-04-06T10:42:37.489Z,52.36
2019-04-06T10:43:56.778Z,52.25
2019-04-06T10:45:19.666Z,52.13
2019-04-06T10:46:31.454Z,52.04
2019-04-06T10:48:01.647Z,51.95
2019-04-06T10:49:22.084Z,52.02
2019-04-06T10:50:41.007Z,52.15
2019-04-06T10:52:20.878Z,52.17
2019-04-06T10:53:37.542Z,52.10
2019-04-06T10:55:11.026Z,52.00
2019-04-06T10:56:27.621Z,51.91
2019-04-06T10:57:48.330Z,51.92
2019-04-06T10:59:13.882Z,51.88
2019-04-06T11:00:26.897Z,51.79
2019-04-06T11:02:03.563Z,51.70
2019-04-06T11:03:16.103Z,51.61
2019-04-06T11:04:34.419Z,51.49
2019-04-06T11:05:51.757Z,51.46
2019-04-06T11:07:03.819Z,51.39
2019-04-06T11:08:26.771Z,51.35
2019-04-06T11:09:49.643Z,51.37
2019-04-06T11:11:11.895Z,51.32
2019-04-06T11:12:26.971Z,51.42
2019-04-06T11:13:43.283Z,51.47
2019-04-06T11:15:11.930Z,51.46
2019-04-06T11:16:24.998Z,51.39
2019-04-06T11:17:38.228Z,51.31
2019-04-06T11:19:11.276Z,51.26
2019-04-06T11:20:28.961Z,51.16
2019-04-06T11:21:54.882Z,51.06
2019-04-06T11:23:14.841Z,50.94
2019-04-06T11:24:35.740Z,50.72
2019-04-06T11:25:52.970Z,50.65
2019-04-06T11:27:32.240Z,50.53
2019-04-06T11:28:46.428Z,50.50
2019-04-06T11:30:19.425Z,50.50
2019-04-06T11:31:42.140Z,50.45
2019-04-06T11:33:06.306Z,50.37
2019-04-06T11:34:40.719Z,50.30
2019-04-06T11:36:03.916Z,50.31
2019-04-06T11:37:26.795Z,50.28
2019-04-06T11:39:00.804Z,50.26
2019-04-06T11:40:17.596Z,50.17
2019-04-06T11:41:40.379Z,50.19
2019-04-06T11:42:51.934Z,50.26
2019-04-06T11:44:07.248Z,50.33
2019-04-06T11:45:24.656Z,50.34
2019-04-06T11:46:47.566Z,50.25
2019-04-06T11:48:10.474Z,50.29
2019-04-06T11:49:32.946Z,50.20
2019-04-06T11:50:48.442Z,49.99
2019-04-06T11:52:30.654Z,49.91
2019-04-06T11:54:00.777Z,49.83
2019-04-06T11:55:16.103Z,49.69
2019-04-06T11:56:28.494Z,49.64
2019-04-06T11:57:42.191Z,49.55
2019-04-06T11:59:08.952Z,49.38
2019-04-06T12:00:28.222Z,49.28
2019-04-06T12:02:02.646Z,49.31
2019-04-06T12:03:26.715Z,49.24
2019-04-06T12:05:03.065Z,49.26
2019-04-06T12:06:27.376Z,49.24
2019-04-06T12:07:50.179Z,49.22
2019-04-06T12:09:06.999Z,49.22
2019-04-06T12:10:29.761Z,49.18
2019-04-06T12:11:45.124Z,49.15
2019-04-06T12:12:57.612Z,49.02
2019-04-06T12:14:33.895Z,48.99
2019-04-06T12:15:57.543Z,48.97
2019-04-06T12:17:13.471Z,48.94
2019-04-06T12:18:34.912Z,48.89
2019-04-06T12:20:02.455Z,48.84
2019-04-06T12:21:27.788Z,48.82
2019-04-06T12:22:51.325Z,48.83
2019-04-06T12:24:17.474Z,48.86
2019-04-06T12:25:44.720Z,48.76
2019-04-06T12:27:07.337Z,48.67
2019-04-06T12:28:32.156Z,48.64
2019-04-06T12:29:56.201Z,48.58
2019-04-06T12:31:14.178Z,48.59
2019-04-06T12:32:56.416Z,48.61
2019-04-06T12:34:14.623Z,48.47
2019-04-06T12:35:38.874Z,48.37
2019-04-06T12:37:03.201Z,48.28
2019-04-06T12:38:25.814Z,48.20
2019-04-06T12:39:52.534Z,48.08
2019-04-06T12:41:04.702Z,47.96
2019-04-06T12:42:24.970Z,47.83
2019-04-06T12:43:55.225Z,47.72
2019-04-06T12:45:28.421Z,47.69
2019-04-06T12:46:51.378Z,47.72
2019-04-06T12:48:21.647Z,47.73
2019-04-06T12:49:35.607Z,47.70
2019-04-06T12:50:58.695Z,47.72
2019-04-06T12:52:25.117Z,47.67
2019-04-06T12:53:55.179Z,47.56
2019-04-06T12:55:09.335Z,47.51
2019-04-06T12:56:22.933Z,47.58
2019-04-06T12:57:46.245Z,47.53
2019-04-06T12:59:09.290Z,47.43
2019-04-06T13:00:30.993Z,47.30
2019-04-06T13:01:53.892Z,47.23
2019-04-06T13:03:14.014Z,47.16
2019-04-06T13:04:44.290Z,47.11
2019-04-06T13:06:01.191Z,47.02
2019-04-06T13:07:15.629Z,46.99
2019-04-06T13:08:41.525Z,46.96
2019-04-06T13:10:06.103Z,46.87
2019-04-06T13:11:21.167Z,46.95
2019-04-06T13:12:45.183Z,46.95
2019-04-06T13:14:05.186Z,46.88
2019-04-06T13:15:44.930Z,46.92
2019-04-06T13:16:58.589Z,46.88
2019-04-06T13:18:21.794Z,46.83
2019-04-06T13:19:57.920Z,46.85
2019-04-06T13:21:20.892Z,46.87
2019-04-06T13:22:48.286Z,46.83
2019-04-06T13:24:04.571Z,46.79
2019-04-06T13:25:27.697Z,46.77
2019-04-06T13:26:51.892Z,46.72
2019-04-06T13:28:28.584Z,46.71
2019-04-06T13:29:46.525Z,46.73
2019-04-06T13:31:03.524Z,46.73
2019-04-06T13:32:17.862Z,46.69
2019-04-06T13:33:41.031Z,46.73
2019-04-06T13:34:55.283Z,46.82
2019-04-06T13:36:13.464Z,46.72
2019-04-06T13:37:36.101Z,46.70
2019-04-06T13:39:00.492Z,46.74
2019-04-06T13:40:15.772Z,46.71
2019-04-06T13:41:42.760Z,46.67
2019-04-06T13:43:06.853Z,46.65
2019-04-06T13:44:29.602Z,46.67
2019-04-06T13:45:59.776Z,46.66
2019-04-06T13:47:24.076Z,46.67
2019-04-06T13:48:48.417Z,46.69
2019-04-06T13:50:15.839Z,46.73
2019-04-06T13:51:28.749Z,46.75
2019-04-06T13:52:45.179Z,46.72
2019-04-06T13:54:27.904Z,46.65
2019-04-06T13:55:54.587Z,46.58
2019-04-06T13:57:06.102Z,46.64
2019-04-06T13:58:30.446Z,46.66
2019-04-06T13:59:52.187Z,46.64
2019-04-06T14:01:17.614Z,46.62
2019-04-06T14:02:41.272Z,46.53
2019-04-06T14:04:08.289Z,46.56
2019-04-06T14:05:21.500Z,46.62
2019-04-06T14:06:42.711Z,46.65
2019-04-06T14:08:12.717Z,46.64
2019-04-06T14:09:35.847Z,46.66
2019-04-06T14:10:52.555Z,46.61
2019-04-06T14:12:09.980Z,46.58
2019-04-06T14:13:25.069Z,46.55
2019-04-06T14:14:46.051Z,46.54
2019-04-06T14:16:01.051Z,46.51
2019-04-06T14:17:24.655Z,46.49
2019-04-06T14:18:45.385Z,46.42
2019-04-06T14:20:09.607Z,46.47
2019-04-06T14:21:49.214Z,46.53
2019-04-06T14:23:31.170Z,46.56
2019-04-06T14:24:51.784Z,46.55
2019-04-06T14:26:15.794Z,46.58
2019-04-06T14:27:28.624Z,46.59
2019-04-06T14:29:01.979Z,46.55
2019-04-06T14:30:20.503Z,46.47
2019-04-06T14:31:44.148Z,46.40
2019-04-06T14:33:04.141Z,46.39
2019-04-06T14:34:22.817Z,46.36
2019-04-06T14:35:42.265Z,46.32
2019-04-06T14:36:55.638Z,46.29
2019-04-06T14:38:16.965Z,46.35
2019-04-06T14:39:49.846Z,46.34
2019-04-06T14:41:29.140Z,46.31
2019-04-06T14:42:46.281Z,46.29
2019-04-06T14:44:09.197Z,46.33
2019-04-06T14:45:35.502Z,46.38
2019-04-06T14:47:02.751Z,46.32
2019-04-06T14:48:14.845Z,46.37
2019-04-06T14:49:40.041Z,46.44
2019-04-06T14:51:01.830Z,46.43
2019-04-06T14:52:25.153Z,46.41
2019-04-06T14:53:39.171Z,46.38
2019-04-06T14:54:54.486Z,46.36
2019-04-06T14:56:14.573Z,46.28
2019-04-06T14:57:25.883Z,46.23
2019-04-06T14:58:49.474Z,46.19
2019-04-06T15:00:16.302Z,46.12
2019-04-06T15:01:48.920Z,46.12
2019-04-06T15:03:09.644Z,46.14
2019-04-06T15:04:30.044Z,46.18
2019-04-06T15:05:53.018Z,46.24
2019-04-06T15:07:20.424Z,46.29
2019-04-06T15:08:51.502Z,46.33
2019-04-06T15:10:24.119Z,46.40
2019-04-06T15:11:47.890Z,46.50
2019-04-06T15:13:27.924Z,46.63
2019-04-06T15:14:43.692Z,46.72
2019-04-06T15:16:13.724Z,46.80
2019-04-06T15:17:30.907Z,46.93